Time;durP1;ratioP1;P1;durP2;ratioP2;P2;SDS_P1;SDS_P2;PMS_P1;PMS_P2;Temp;Humidity;BMP_temperature;BMP_pressure;BME280_temperature;BME280_humidity;BME280_pressure;Samples;Min_cycle;Max_cycle;Signal;HPM_P1;HPM_P2
2022/11/04 00:02:13;;;;;;;;;;;;;;;;;;4981567;28;2908;-62
2022/11/04 00:04:38;;;;;;;;;;;;;;;;;;4976524;28;4973;-63
2022/11/04 00:08:22;;;;;;;;;;;;;;;;;;4991093;28;5086;-68
2022/11/04 00:09:49;;;;;;;;;;;;;;;;;;4973554;28;5012;-64
2022/11/04 00:12:26;;;;;;;;;;;;;;;;;;4983280;28;5200;-63
2022/11/04 00:14:51;;;;;;;;;;;;;;;;;;4983422;28;4643;-64
2022/11/04 00:17:20;;;;;;;;;;;;;;;;;;5006577;28;1032;-67
2022/11/04 00:33:50;;;;;;;;;;;;;;;;;;4980871;28;5104;-63
2022/11/04 00:36:15;;;;;;;;;;;;;;;;;;4974323;28;5108;-63
2022/11/04 00:38:41;;;;;;;;;;;;;;;;;;4977417;28;4608;-63
2022/11/04 00:41:24;;;;;;;;;;;;;;;;;;4992487;28;1931;-64
2022/11/04 00:43:50;;;;;;;;;;;;;;;;;;4976471;28;4882;-66
2022/11/04 00:46:15;;;;;;;;;;;;;;;;;;4973181;28;5136;-68
2022/11/04 00:48:40;;;;;;;;;;;;;;;;;;4972476;28;4721;-63
2022/11/04 00:51:06;;;;;;;;;;;;;;;;;;4974599;28;5144;-63
2022/11/04 00:53:31;;;;;;;;;;;;;;;;;;4988169;28;5116;-64
2022/11/04 00:55:59;;;;;;;;;;;;;;;;;;4994333;28;1515;-63
2022/11/04 00:58:25;;;;;;;;;;;;;;;;;;4987749;28;5063;-65
2022/11/04 01:00:50;;;;;;;;;;;;;;;;;;4973727;28;4467;-63
2022/11/04 01:03:15;;;;;;;;;;;;;;;;;;4987045;28;4833;-64
2022/11/04 01:05:40;;;;;;;;;;;;;;;;;;4972282;28;5006;-64
2022/11/04 01:08:06;;;;;;;;;;;;;;;;;;5013841;28;1918;-63
2022/11/04 01:10:33;;;;;;;;;;;;;;;;;;5012464;28;4839;-64
2022/11/04 01:12:58;;;;;;;;;;;;;;;;;;4987861;28;5295;-63
2022/11/04 01:15:23;;;;;;;;;;;;;;;;;;4993090;28;5030;-64
2022/11/04 01:17:49;;;;;;;;;;;;;;;;;;5007108;28;4892;-63
2022/11/04 01:20:14;;;;;;;;;;;;;;;;;;5006165;28;4357;-64
2022/11/04 01:22:39;;;;;;;;;;;;;;;;;;4981176;28;5144;-64
2022/11/04 01:25:26;;;;;;;;;;;;;;;;;;4972285;28;5210;-63
2022/11/04 01:30:54;;;;;;;;;;;;;;;;;;5012019;28;5018;-63
2022/11/04 01:33:20;;;;;;;;;;;;;;;;;;4978890;28;4984;-63
2022/11/04 01:35:51;;;;;;;;;;;;;;;;;;4987430;28;4712;-63
2022/11/04 01:38:36;;;;;;;;;;;;;;;;;;4993713;28;931;-63
2022/11/04 01:41:02;;;;;;;;;;;;;;;;;;4992767;28;4625;-65
2022/11/04 01:43:41;;;;;;;;;;;;;;;;;;4978122;28;4492;-64
2022/11/04 01:46:07;;;;;;;;;;;;;;;;;;4983623;28;4918;-63
2022/11/04 01:48:37;;;;;;;;;;;;;;;;;;4992251;28;4945;-63
2022/11/04 01:51:03;;;;;;;;;;;;;;;;;;4992691;28;4965;-64
2022/11/04 01:53:38;;;;;;;;;;;;;;;;;;4983864;28;4846;-64
2022/11/04 01:56:11;;;;;;;;;;;;;;;;;;4973509;28;2896;-64
2022/11/04 01:58:37;;;;;;;;;;;;;;;;;;4977019;28;5092;-61
2022/11/04 02:01:02;;;;;;;;;;;;;;;;;;4992457;28;4606;-62
2022/11/04 02:03:29;;;;;;;;;;;;;;;;;;4990228;28;5065;-64
2022/11/04 02:05:54;;;;;;;;;;;;;;;;;;4977960;28;5123;-62
2022/11/04 02:08:20;;;;;;;;;;;;;;;;;;4992710;28;1973;-62
2022/11/04 02:14:06;;;;;;;;;;;;;;;;;;4987530;28;4581;-63
2022/11/04 02:16:44;;;;;;;;;;;;;;;;;;4991309;28;4456;-63
2022/11/04 02:19:22;;;;;;;;;;;;;;;;;;4991873;28;4994;-63
2022/11/04 02:21:56;;;;;;;;;;;;;;;;;;4992928;28;4963;-62
2022/11/04 02:24:21;;;;;;;;;;;;;;;;;;4991573;28;4952;-62
2022/11/04 02:27:22;;;;;;;;;;;;;;;;;;4972283;28;4970;-62
2022/11/04 02:29:53;;;;;;;;;;;;;;;;;;4951124;29;5098;-63
2022/11/04 02:32:39;;;;;;;;;;;;;;;;;;4984819;28;1203;-63
2022/11/04 02:35:09;;;;;;;;;;;;;;;;;;4968539;28;4852;-63
2022/11/04 02:37:55;;;;;;;;;;;;;;;;;;4971575;28;4939;-63
2022/11/04 02:40:39;;;;;;;;;;;;;;;;;;4972267;28;4836;-63
2022/11/04 02:43:12;;;;;;;;;;;;;;;;;;4972179;28;5122;-63
2022/11/04 02:45:39;;;;;;;;;;;;;;;;;;4964585;28;4643;-65
2022/11/04 02:48:27;;;;;;;;;;;;;;;;;;4986067;28;5042;-63
2022/11/04 02:50:52;;;;;;;;;;;;;;;;;;4972822;28;5073;-63
2022/11/04 02:53:20;;;;;;;;;;;;;;;;;;4985558;28;1107;-63
2022/11/04 02:55:46;;;;;;;;;;;;;;;;;;4963592;28;4794;-63
2022/11/04 02:58:33;;;;;;;;;;;;;;;;;;4986164;28;5093;-64
2022/11/04 03:00:58;;;;;;;;;;;;;;;;;;4991829;28;4627;-64
2022/11/04 03:03:37;;;;;;;;;;;;;;;;;;5000964;28;5317;-63
2022/11/04 03:06:02;;;;;;;;;;;;;;;;;;4976028;28;5268;-63
2022/11/04 03:08:30;;;;;;;;;;;;;;;;;;4987281;28;5097;-65
2022/11/04 03:11:02;;;;;;;;;;;;;;;;;;4972916;28;774;-63
2022/11/04 03:13:28;;;;;;;;;;;;;;;;;;5005119;28;5209;-62
2022/11/04 03:15:58;;;;;;;;;;;;;;;;;;4970033;28;4992;-63
2022/11/04 03:18:28;;;;;;;;;;;;;;;;;;4974103;28;5133;-63
2022/11/04 03:21:10;;;;;;;;;;;;;;;;;;4974063;28;5036;-63
2022/11/04 03:23:35;;;;;;;;;;;;;;;;;;5006308;28;5002;-63
2022/11/04 03:26:21;;;;;;;;;;;;;;;;;;5006722;28;1642;-63
2022/11/04 03:28:49;;;;;;;;;;;;;;;;;;4998918;28;4825;-63
2022/11/04 03:31:19;;;;;;;;;;;;;;;;;;5007900;28;5092;-63
2022/11/04 03:33:46;;;;;;;;;;;;;;;;;;5005079;28;5077;-67
2022/11/04 03:36:12;;;;;;;;;;;;;;;;;;4978922;28;4667;-63
2022/11/04 03:38:37;;;;;;;;;;;;;;;;;;4991178;28;4497;-64
2022/11/04 03:41:03;;;;;;;;;;;;;;;;;;5005873;28;2920;-64
2022/11/04 03:43:28;;;;;;;;;;;;;;;;;;4990431;28;4935;-62
2022/11/04 03:45:57;;;;;;;;;;;;;;;;;;4990672;28;4850;-64
2022/11/04 03:48:23;;;;;;;;;;;;;;;;;;4990361;28;5167;-68
2022/11/04 03:50:51;;;;;;;;;;;;;;;;;;4991321;28;4511;-64
2022/11/04 03:53:21;;;;;;;;;;;;;;;;;;4995371;28;1323;-67
2022/11/04 03:55:52;;;;;;;;;;;;;;;;;;4984036;28;5172;-64
2022/11/04 03:58:27;;;;;;;;;;;;;;;;;;4975180;28;4925;-65
2022/11/04 04:00:55;;;;;;;;;;;;;;;;;;4982166;28;4447;-63
2022/11/04 04:03:23;;;;;;;;;;;;;;;;;;4974583;28;4992;-63
2022/11/04 04:05:56;;;;;;;;;;;;;;;;;;4974381;28;4963;-63
2022/11/04 04:08:27;;;;;;;;;;;;;;;;;;4976692;28;1910;-65
2022/11/04 04:11:01;;;;;;;;;;;;;;;;;;4994127;28;4415;-62
2022/11/04 04:13:38;;;;;;;;;;;;;;;;;;4994034;28;5078;-62
2022/11/04 04:16:10;;;;;;;;;;;;;;;;;;4968755;28;4803;-62
2022/11/04 04:18:41;;;;;;;;;;;;;;;;;;4994284;28;4942;-63
2022/11/04 04:21:29;;;;;;;;;;;;;;;;;;4991940;28;5025;-63
2022/11/04 04:29:21;;;;;;;;;;;;;;;;;;4993806;28;1911;-63
2022/11/04 04:31:50;;;;;;;;;;;;;;;;;;4976751;28;4920;-63
2022/11/04 04:34:22;;;;;;;;;;;;;;;;;;4973149;28;4929;-63
2022/11/04 04:36:52;;;;;;;;;;;;;;;;;;4976894;28;4895;-63
2022/11/04 04:47:54;;;;;;;;;;;;;;;;;;4980308;28;4744;-63
2022/11/04 04:50:36;;;;;;;;;;;;;;;;;;4995553;28;1069;-63
2022/11/04 04:53:04;;;;;;;;;;;;;;;;;;4990228;28;4879;-64
2022/11/04 04:55:32;;;;;;;;;;;;;;;;;;4977187;28;4839;-63
2022/11/04 04:58:07;;;;;;;;;;;;;;;;;;4993498;28;4997;-63
2022/11/04 05:00:32;;;;;;;;;;;;;;;;;;4995045;28;5020;-64
2022/11/04 05:02:58;;;;;;;;;;;;;;;;;;4981639;28;5136;-66
2022/11/04 05:05:23;;;;;;;;;;;;;;;;;;4981750;28;5267;-63
2022/11/04 05:07:48;;;;;;;;;;;;;;;;;;4968166;28;1911;-64
2022/11/04 05:10:14;;;;;;;;;;;;;;;;;;4978261;28;4462;-64
2022/11/04 05:15:23;;;;;;;;;;;;;;;;;;4982180;28;5247;-63
2022/11/04 05:17:55;;;;;;;;;;;;;;;;;;4984893;28;4874;-63
2022/11/04 05:20:21;;;;;;;;;;;;;;;;;;4993034;28;4500;-65
2022/11/04 05:22:46;;;;;;;;;;;;;;;;;;4986872;28;4949;-63
2022/11/04 05:25:11;;;;;;;;;;;;;;;;;;4977810;28;5078;-64
2022/11/04 05:27:36;;;;;;;;;;;;;;;;;;4973469;28;5324;-64
2022/11/04 05:30:02;;;;;;;;;;;;;;;;;;4989237;28;5091;-64
2022/11/04 05:32:28;;;;;;;;;;;;;;;;;;4993061;28;4605;-64
2022/11/04 05:34:54;;;;;;;;;;;;;;;;;;4991051;28;1617;-63
2022/11/04 05:37:19;;;;;;;;;;;;;;;;;;4990968;28;4624;-63
2022/11/04 05:39:44;;;;;;;;;;;;;;;;;;4992286;28;4492;-64
2022/11/04 05:42:09;;;;;;;;;;;;;;;;;;4992712;28;5008;-64
2022/11/04 05:44:54;;;;;;;;;;;;;;;;;;4986460;28;5114;-64
2022/11/04 05:47:19;;;;;;;;;;;;;;;;;;4993001;28;1133;-68
2022/11/04 05:49:44;;;;;;;;;;;;;;;;;;4992368;28;5181;-64
2022/11/04 05:52:16;;;;;;;;;;;;;;;;;;4992077;28;5134;-64
2022/11/04 05:54:41;;;;;;;;;;;;;;;;;;4984136;28;5024;-64
2022/11/04 05:57:07;;;;;;;;;;;;;;;;;;4969522;28;5040;-64
2022/11/04 05:59:32;;;;;;;;;;;;;;;;;;4973452;28;5127;-65
2022/11/04 06:01:57;;;;;;;;;;;;;;;;;;4992586;28;2081;-63
2022/11/04 06:07:26;;;;;;;;;;;;;;;;;;5001236;28;4666;-63
2022/11/04 06:09:51;;;;;;;;;;;;;;;;;;4992030;28;4992;-68
2022/11/04 06:12:22;;;;;;;;;;;;;;;;;;4998474;28;4936;-63
2022/11/04 06:14:47;;;;;;;;;;;;;;;;;;5003174;28;4529;-62
2022/11/04 06:17:32;;;;;;;;;;;;;;;;;;5005289;28;2268;-63
2022/11/04 06:19:57;;;;;;;;;;;;;;;;;;4990773;28;4755;-64
2022/11/04 06:22:22;;;;;;;;;;;;;;;;;;4995806;28;4497;-63
2022/11/04 06:24:48;;;;;;;;;;;;;;;;;;4991972;28;4638;-63
2022/11/04 06:27:13;;;;;;;;;;;;;;;;;;5003943;28;4889;-63
2022/11/04 06:30:03;;;;;;;;;;;;;;;;;;5011738;28;5117;-62
2022/11/04 06:32:28;;;;;;;;;;;;;;;;;;4995769;28;4683;-63
2022/11/04 06:34:53;;;;;;;;;;;;;;;;;;5002504;28;2897;-63
2022/11/04 06:55:34;;;;;;;;;;;;;;;;;;5035000;28;5025;-67
2022/11/04 06:58:00;;;;;;;;;;;;;;;;;;5032134;28;4818;-67
2022/11/04 07:00:25;;;;;;;;;;;;;;;;;;4992361;28;5034;-68
2022/11/04 07:02:50;;;;;;;;;;;;;;;;;;4990090;28;5078;-67
2022/11/04 07:05:16;;;;;;;;;;;;;;;;;;4986796;28;2994;-68
2022/11/04 07:07:41;;;;;;;;;;;;;;;;;;4989638;28;4959;-68
2022/11/04 07:10:06;;;;;;;;;;;;;;;;;;4963297;28;5026;-68
2022/11/04 07:12:32;;;;;;;;;;;;;;;;;;4989028;28;4992;-69
2022/11/04 07:14:57;;;;;;;;;;;;;;;;;;4991016;28;5020;-69
2022/11/04 07:17:22;;;;;;;;;;;;;;;;;;4983370;28;1865;-68
2022/11/04 07:19:48;;;;;;;;;;;;;;;;;;4985045;28;4579;-68
2022/11/04 07:22:14;;;;;;;;;;;;;;;;;;4973059;28;5321;-69
2022/11/04 07:24:50;;;;;;;;;;;;;;;;;;4971292;28;4855;-69
2022/11/04 07:27:15;;;;;;;;;;;;;;;;;;4971334;28;5015;-69
2022/11/04 07:29:40;;;;;;;;;;;;;;;;;;4982907;28;4483;-68
2022/11/04 07:32:05;;;;;;;;;;;;;;;;;;4996689;28;2264;-68
2022/11/04 07:34:31;;;;;;;;;;;;;;;;;;4968061;28;4642;-69
2022/11/04 07:36:56;;;;;;;;;;;;;;;;;;4990331;28;5128;-69
2022/11/04 07:39:21;;;;;;;;;;;;;;;;;;4990666;28;4991;-68
2022/11/04 07:41:46;;;;;;;;;;;;;;;;;;4990088;28;4837;-68
2022/11/04 07:44:12;;;;;;;;;;;;;;;;;;4991857;28;1040;-68
2022/11/04 07:46:38;;;;;;;;;;;;;;;;;;4973204;28;5097;-68
2022/11/04 07:49:03;;;;;;;;;;;;;;;;;;4978324;28;4478;-69
2022/11/04 07:51:31;;;;;;;;;;;;;;;;;;4990706;28;5012;-69
2022/11/04 07:53:58;;;;;;;;;;;;;;;;;;4991184;28;5121;-68
2022/11/04 07:56:23;;;;;;;;;;;;;;;;;;4973188;28;4957;-68
2022/11/04 07:58:49;;;;;;;;;;;;;;;;;;4991325;28;1027;-68
2022/11/04 08:01:15;;;;;;;;;;;;;;;;;;4991868;28;5069;-68
2022/11/04 08:03:40;;;;;;;;;;;;;;;;;;4996825;28;5081;-69
2022/11/04 08:06:06;;;;;;;;;;;;;;;;;;4992078;28;4987;-68
2022/11/04 08:08:31;;;;;;;;;;;;;;;;;;4975927;28;5106;-69
2022/11/04 08:11:01;;;;;;;;;;;;;;;;;;5010068;28;2352;-69
2022/11/04 08:13:34;;;;;;;;;;;;;;;;;;5009923;28;4869;-68
2022/11/04 08:16:08;;;;;;;;;;;;;;;;;;5006809;28;4651;-69
2022/11/04 08:18:34;;;;;;;;;;;;;;;;;;4990428;28;4984;-69
2022/11/04 08:21:01;;;;;;;;;;;;;;;;;;5006054;28;4590;-68
2022/11/04 08:23:26;;;;;;;;;;;;;;;;;;4992092;28;5079;-65
2022/11/04 08:26:01;;;;;;;;;;;;;;;;;;4982741;28;1957;-67
2022/11/04 08:28:28;;;;;;;;;;;;;;;;;;5002739;28;4566;-66
2022/11/04 08:31:25;;;;;;;;;;;;;;;;;;5006981;28;5067;-64
2022/11/04 08:33:50;;;;;;;;;;;;;;;;;;5012774;28;5039;-67
2022/11/04 08:36:17;;;;;;;;;;;;;;;;;;4996004;28;5085;-67
2022/11/04 08:38:42;;;;;;;;;;;;;;;;;;4994399;28;4949;-66
2022/11/04 08:41:08;;;;;;;;;;;;;;;;;;5010084;28;1759;-68
2022/11/04 08:43:33;;;;;;;;;;;;;;;;;;5011847;28;5002;-67
2022/11/04 08:45:58;;;;;;;;;;;;;;;;;;5011939;28;5088;-65
2022/11/04 08:48:24;;;;;;;;;;;;;;;;;;5013730;28;4531;-66
2022/11/04 08:51:09;;;;;;;;;;;;;;;;;;5011252;28;4502;-69
2022/11/04 08:53:34;;;;;;;;;;;;;;;;;;5010671;28;4675;-68
2022/11/04 08:56:07;;;;;;;;;;;;;;;;;;5033566;28;909;-69
2022/11/04 08:58:32;;;;;;;;;;;;;;;;;;5032149;28;5372;-69
2022/11/04 09:01:01;;;;;;;;;;;;;;;;;;5022724;28;4939;-68
2022/11/04 09:03:33;;;;;;;;;;;;;;;;;;5014782;28;4596;-68
2022/11/04 09:05:59;;;;;;;;;;;;;;;;;;4982245;28;5509;-68
2022/11/04 09:08:24;;;;;;;;;;;;;;;;;;4957724;28;5224;-68
2022/11/04 09:10:49;;;;;;;;;;;;;;;;;;4965788;28;2161;-69
2022/11/04 09:13:14;;;;;;;;;;;;;;;;;;5007156;28;4952;-68
2022/11/04 09:15:47;;;;;;;;;;;;;;;;;;5003155;28;5061;-68
2022/11/04 09:18:13;;;;;;;;;;;;;;;;;;4973782;28;4981;-68
2022/11/04 09:20:38;;;;;;;;;;;;;;;;;;4984847;28;5177;-70
2022/11/04 09:23:04;;;;;;;;;;;;;;;;;;4989512;28;1909;-69
2022/11/04 09:25:29;;;;;;;;;;;;;;;;;;4982943;28;5081;-69
2022/11/04 09:27:54;;;;;;;;;;;;;;;;;;4971186;28;5061;-69
2022/11/04 09:30:20;;;;;;;;;;;;;;;;;;4984945;28;5094;-69
2022/11/04 09:33:08;;;;;;;;;;;;;;;;;;4982928;28;4809;-70
2022/11/04 09:35:33;;;;;;;;;;;;;;;;;;4984289;28;4470;-69
2022/11/04 09:38:00;;;;;;;;;;;;;;;;;;4994131;28;2052;-69
2022/11/04 09:40:25;;;;;;;;;;;;;;;;;;4974578;28;5013;-69
2022/11/04 09:43:09;;;;;;;;;;;;;;;;;;4993009;28;4740;-69
2022/11/04 09:46:09;;;;;;;;;;;;;;;;;;4975709;28;4647;-69
2022/11/04 09:48:39;;;;;;;;;;;;;;;;;;4996184;28;4958;-69
2022/11/04 09:51:05;;;;;;;;;;;;;;;;;;4976430;28;5107;-69
2022/11/04 09:56:44;;;;;;;;;;;;;;;;;;4991855;28;4916;-69
2022/11/04 09:59:10;;;;;;;;;;;;;;;;;;4975177;28;1122;-69
2022/11/04 10:01:54;;;;;;;;;;;;;;;;;;4985917;28;5012;-68
2022/11/04 10:04:38;;;;;;;;;;;;;;;;;;4999570;28;4471;-68
2022/11/04 10:07:22;;;;;;;;;;;;;;;;;;5011891;28;5083;-68
2022/11/04 10:10:00;;;;;;;;;;;;;;;;;;5011356;28;4844;-68
2022/11/04 10:12:44;;;;;;;;;;;;;;;;;;5011022;28;5041;-68
2022/11/04 10:15:15;;;;;;;;;;;;;;;;;;5011365;28;5151;-69
2022/11/04 10:17:44;;;;;;;;;;;;;;;;;;5026005;28;4655;-69
2022/11/04 10:20:13;;;;;;;;;;;;;;;;;;5004638;28;4503;-68
2022/11/04 10:26:01;;;;;;;;;;;;;;;;;;5019022;28;5043;-69
2022/11/04 10:28:30;;;;;;;;;;;;;;;;;;4981082;28;5027;-68
2022/11/04 10:30:55;;;;;;;;;;;;;;;;;;4994841;28;4487;-69
2022/11/04 10:33:29;;;;;;;;;;;;;;;;;;5020337;28;5008;-68
2022/11/04 10:36:04;;;;;;;;;;;;;;;;;;4993255;28;4848;-68
2022/11/04 10:38:37;;;;;;;;;;;;;;;;;;4991871;28;4977;-68
2022/11/04 10:41:26;;;;;;;;;;;;;;;;;;4991085;28;1605;-68
2022/11/04 10:43:56;;;;;;;;;;;;;;;;;;4990872;28;4936;-67
2022/11/04 10:46:37;;;;;;;;;;;;;;;;;;5009794;28;4621;-68
2022/11/04 10:49:02;;;;;;;;;;;;;;;;;;5010418;28;5080;-69
2022/11/04 10:51:34;;;;;;;;;;;;;;;;;;5011463;28;4996;-68
2022/11/04 10:54:08;;;;;;;;;;;;;;;;;;4997302;28;4440;-68
2022/11/04 10:56:39;;;;;;;;;;;;;;;;;;5013074;28;5098;-68
2022/11/04 10:59:14;;;;;;;;;;;;;;;;;;5016374;28;1016;-68
2022/11/04 11:02:01;;;;;;;;;;;;;;;;;;5010459;28;5021;-68
2022/11/04 11:04:33;;;;;;;;;;;;;;;;;;4999520;28;4616;-68
2022/11/04 11:07:00;;;;;;;;;;;;;;;;;;4989678;28;5116;-68
2022/11/04 11:09:35;;;;;;;;;;;;;;;;;;4989247;28;4597;-69
2022/11/04 11:12:13;;;;;;;;;;;;;;;;;;4989549;28;5104;-69
2022/11/04 11:14:39;;;;;;;;;;;;;;;;;;4974490;28;5705;-69
2022/11/04 11:17:14;;;;;;;;;;;;;;;;;;4986346;28;2001;-69
2022/11/04 11:19:51;;;;;;;;;;;;;;;;;;4982241;28;4429;-68
2022/11/04 11:22:35;;;;;;;;;;;;;;;;;;4990339;28;4988;-69
2022/11/04 11:25:19;;;;;;;;;;;;;;;;;;4975092;28;5060;-69
2022/11/04 11:27:46;;;;;;;;;;;;;;;;;;4982091;28;5457;-68
2022/11/04 11:30:19;;;;;;;;;;;;;;;;;;4982140;28;5058;-69
2022/11/04 11:32:45;;;;;;;;;;;;;;;;;;4972179;28;4539;-68
2022/11/04 11:35:14;;;;;;;;;;;;;;;;;;4956660;28;1383;-68
2022/11/04 11:37:39;;;;;;;;;;;;;;;;;;4971121;28;4937;-68
2022/11/04 11:40:05;;;;;;;;;;;;;;;;;;4967370;28;5057;-68
2022/11/04 11:42:30;;;;;;;;;;;;;;;;;;4990707;28;4656;-68
2022/11/04 11:44:55;;;;;;;;;;;;;;;;;;4988754;28;4439;-69
2022/11/04 11:47:24;;;;;;;;;;;;;;;;;;4957819;28;1197;-68
2022/11/04 11:50:04;;;;;;;;;;;;;;;;;;4984921;28;4441;-69
2022/11/04 11:52:32;;;;;;;;;;;;;;;;;;4983045;28;4941;-69
2022/11/04 12:01:09;;;;;;;;;;;;;;;;;;4991377;28;5134;-69
2022/11/04 12:03:39;;;;;;;;;;;;;;;;;;4994241;28;5163;-69
2022/11/04 12:06:23;;;;;;;;;;;;;;;;;;4981979;28;5073;-69
2022/11/04 12:08:48;;;;;;;;;;;;;;;;;;5006467;28;5194;-69
2022/11/04 12:11:14;;;;;;;;;;;;;;;;;;4998646;28;2090;-69
2022/11/04 12:13:41;;;;;;;;;;;;;;;;;;5013051;28;4767;-69
2022/11/04 12:16:09;;;;;;;;;;;;;;;;;;4986298;28;4516;-69
2022/11/04 12:18:53;;;;;;;;;;;;;;;;;;4996793;28;5008;-70
2022/11/04 12:21:20;;;;;;;;;;;;;;;;;;4975282;28;4599;-69
2022/11/04 12:23:52;;;;;;;;;;;;;;;;;;4973486;28;5051;-68
2022/11/04 12:26:23;;;;;;;;;;;;;;;;;;4988853;28;1562;-69
2022/11/04 12:28:48;;;;;;;;;;;;;;;;;;4968563;28;5136;-68
2022/11/04 12:31:21;;;;;;;;;;;;;;;;;;4987959;28;5064;-68
2022/11/04 12:33:59;;;;;;;;;;;;;;;;;;4966458;28;4434;-68
2022/11/04 12:36:29;;;;;;;;;;;;;;;;;;4973861;28;4531;-68
2022/11/04 12:38:57;;;;;;;;;;;;;;;;;;4970756;28;4527;-68
2022/11/04 12:41:27;;;;;;;;;;;;;;;;;;4975255;28;1169;-68
2022/11/04 12:44:04;;;;;;;;;;;;;;;;;;4968350;28;5972;-68
2022/11/04 12:46:45;;;;;;;;;;;;;;;;;;4975776;28;5356;-68
2022/11/04 12:49:19;;;;;;;;;;;;;;;;;;4984721;28;5122;-68
2022/11/04 12:51:56;;;;;;;;;;;;;;;;;;4992950;28;5030;-68
2022/11/04 12:54:22;;;;;;;;;;;;;;;;;;4993686;28;5382;-67
2022/11/04 12:59:58;;;;;;;;;;;;;;;;;;4987536;28;5189;-68
2022/11/04 13:02:46;;;;;;;;;;;;;;;;;;4982915;28;4489;-67
2022/11/04 13:05:14;;;;;;;;;;;;;;;;;;4970388;28;1959;-66
2022/11/04 13:07:45;;;;;;;;;;;;;;;;;;4977081;28;4984;-67
2022/11/04 13:10:18;;;;;;;;;;;;;;;;;;4974826;28;5086;-67
2022/11/04 13:12:43;;;;;;;;;;;;;;;;;;4958114;28;4486;-67
2022/11/04 13:15:14;;;;;;;;;;;;;;;;;;4991335;28;4926;-69
2022/11/04 13:17:39;;;;;;;;;;;;;;;;;;4967187;28;4959;-67
2022/11/04 13:20:06;;;;;;;;;;;;;;;;;;4976962;28;4507;-68
2022/11/04 13:22:32;;;;;;;;;;;;;;;;;;4971195;28;4549;-67
2022/11/04 13:24:59;;;;;;;;;;;;;;;;;;4955806;28;4770;-67
2022/11/04 13:27:25;;;;;;;;;;;;;;;;;;4956042;28;4965;-67
2022/11/04 13:29:52;;;;;;;;;;;;;;;;;;4968261;28;5168;-67
2022/11/04 13:32:27;;;;;;;;;;;;;;;;;;4957253;28;845;-68
2022/11/04 13:35:11;;;;;;;;;;;;;;;;;;4955403;28;4367;-68
2022/11/04 13:38:03;;;;;;;;;;;;;;;;;;4973264;28;4890;-68
2022/11/04 13:40:41;;;;;;;;;;;;;;;;;;4985653;28;4629;-68
2022/11/04 13:43:51;;;;;;;;;;;;;;;;;;4991365;28;4529;-68
2022/11/04 13:45:52;;;;;;;;;;;;;;;;;;4982940;28;4690;-67
2022/11/04 13:48:23;;;;;;;;;;;;;;;;;;4957605;28;4989;-68
2022/11/04 13:50:58;;;;;;;;;;;;;;;;;;4997376;28;4929;-69
2022/11/04 13:53:59;;;;;;;;;;;;;;;;;;4971263;28;5119;-67
2022/11/04 13:56:30;;;;;;;;;;;;;;;;;;4982388;28;5107;-69
2022/11/04 13:58:57;;;;;;;;;;;;;;;;;;4975952;28;2909;-69
2022/11/04 14:01:23;;;;;;;;;;;;;;;;;;4967773;28;4505;-69
2022/11/04 14:03:52;;;;;;;;;;;;;;;;;;4990416;28;5084;-68
2022/11/04 14:06:17;;;;;;;;;;;;;;;;;;4973997;28;4670;-70
2022/11/04 14:09:01;;;;;;;;;;;;;;;;;;4979265;28;5045;-70
2022/11/04 14:11:32;;;;;;;;;;;;;;;;;;4974333;28;5201;-69
2022/11/04 14:14:02;;;;;;;;;;;;;;;;;;4973741;28;1336;-69
2022/11/04 14:16:27;;;;;;;;;;;;;;;;;;4989478;28;5370;-68
2022/11/04 14:18:52;;;;;;;;;;;;;;;;;;4985115;28;5062;-69
2022/11/04 14:21:17;;;;;;;;;;;;;;;;;;4990095;28;5064;-68
2022/11/04 14:23:47;;;;;;;;;;;;;;;;;;4985398;28;5541;-69
2022/11/04 14:26:13;;;;;;;;;;;;;;;;;;4955195;28;1022;-68
2022/11/04 14:28:39;;;;;;;;;;;;;;;;;;4938166;28;5081;-68
2022/11/04 14:31:14;;;;;;;;;;;;;;;;;;4971557;28;4440;-68
2022/11/04 14:33:39;;;;;;;;;;;;;;;;;;4966120;28;5056;-64
2022/11/04 14:36:14;;;;;;;;;;;;;;;;;;4971568;28;4959;-76
2022/11/04 14:38:39;;;;;;;;;;;;;;;;;;4969270;28;4487;-72
2022/11/04 14:41:13;;;;;;;;;;;;;;;;;;4989115;28;1614;-72
2022/11/04 14:43:40;;;;;;;;;;;;;;;;;;4989891;28;4975;-74
2022/11/04 14:46:05;;;;;;;;;;;;;;;;;;4975051;28;5020;-73
2022/11/04 14:48:31;;;;;;;;;;;;;;;;;;4980863;28;4876;-74
2022/11/04 14:54:07;;;;;;;;;;;;;;;;;;4973846;28;5111;-74
2022/11/04 14:56:32;;;;;;;;;;;;;;;;;;4972195;28;4740;-74
2022/11/04 14:58:58;;;;;;;;;;;;;;;;;;4969806;28;1400;-69
2022/11/04 15:01:24;;;;;;;;;;;;;;;;;;4972547;28;5038;-71
2022/11/04 15:03:49;;;;;;;;;;;;;;;;;;4988489;28;5158;-70
2022/11/04 15:06:22;;;;;;;;;;;;;;;;;;4971863;28;5090;-71
2022/11/04 15:08:47;;;;;;;;;;;;;;;;;;4973671;28;4669;-67
2022/11/04 15:11:13;;;;;;;;;;;;;;;;;;4985504;28;1888;-75
2022/11/04 15:16:41;;;;;;;;;;;;;;;;;;4975555;28;5144;-72
2022/11/04 15:25:12;;;;;;;;;;;;;;;;;;4975423;28;4781;-72
2022/11/04 15:27:37;;;;;;;;;;;;;;;;;;4973239;28;5211;-72
2022/11/04 15:30:02;;;;;;;;;;;;;;;;;;4979126;28;4953;-72
2022/11/04 15:32:28;;;;;;;;;;;;;;;;;;4994638;28;4888;-72
2022/11/04 15:43:57;;;;;;;;;;;;;;;;;;5003681;28;4744;-72
2022/11/04 15:49:27;;;;;;;;;;;;;;;;;;5018214;28;5018;-73
2022/11/04 15:57:57;;;;;;;;;;;;;;;;;;5017808;28;4996;-71
2022/11/04 16:03:47;;;;;;;;;;;;;;;;;;5016332;28;5126;-72
2022/11/04 16:06:12;;;;;;;;;;;;;;;;;;5019017;28;4487;-72
2022/11/04 16:08:38;;;;;;;;;;;;;;;;;;5037370;28;5160;-71
2022/11/04 16:26:36;;;;;;;;;;;;;;;;;;5018260;28;4547;-70
2022/11/04 16:29:04;;;;;;;;;;;;;;;;;;5017146;28;5083;-70
2022/11/04 16:34:41;;;;;;;;;;;;;;;;;;5028684;28;5287;-69
2022/11/04 16:37:06;;;;;;;;;;;;;;;;;;5008831;28;5131;-69
2022/11/04 16:43:06;;;;;;;;;;;;;;;;;;5022563;28;4580;-68
2022/11/04 16:46:05;;;;;;;;;;;;;;;;;;5004223;28;5836;-76
2022/11/04 16:51:33;;;;;;;;;;;;;;;;;;5016454;28;4924;-64
2022/11/04 16:57:19;;;;;;;;;;;;;;;;;;5017153;28;5040;-65
2022/11/04 16:59:44;;;;;;;;;;;;;;;;;;5017077;28;5068;-65
2022/11/04 17:02:24;;;;;;;;;;;;;;;;;;5002128;28;2144;-65
2022/11/04 17:04:56;;;;;;;;;;;;;;;;;;4985801;28;5340;-65
2022/11/04 17:13:17;;;;;;;;;;;;;;;;;;4996842;28;5001;-65
2022/11/04 17:15:42;;;;;;;;;;;;;;;;;;5031828;28;4441;-63
2022/11/04 17:24:28;;;;;;;;;;;;;;;;;;5036375;28;4446;-74
2022/11/04 17:27:00;;;;;;;;;;;;;;;;;;5010121;28;4996;-63
2022/11/04 17:29:26;;;;;;;;;;;;;;;;;;4965285;28;5051;-64
2022/11/04 17:38:23;;;;;;;;;;;;;;;;;;4997864;28;4753;-64
2022/11/04 17:44:02;;;;;;;;;;;;;;;;;;4996508;28;5561;-64
2022/11/04 17:49:30;;;;;;;;;;;;;;;;;;5016486;28;4876;-66
2022/11/04 17:51:56;;;;;;;;;;;;;;;;;;5015899;28;4650;-65
2022/11/04 17:57:26;;;;;;;;;;;;;;;;;;5016066;28;5295;-63
2022/11/04 17:59:52;;;;;;;;;;;;;;;;;;5004473;28;5133;-69
2022/11/04 18:02:17;;;;;;;;;;;;;;;;;;4995964;28;1142;-62
2022/11/04 18:04:52;;;;;;;;;;;;;;;;;;4997800;28;5102;-62
2022/11/04 18:07:24;;;;;;;;;;;;;;;;;;4976137;28;5073;-63
2022/11/04 18:09:49;;;;;;;;;;;;;;;;;;4981082;28;4790;-62
2022/11/04 18:15:17;;;;;;;;;;;;;;;;;;4995774;28;4621;-62
2022/11/04 18:17:43;;;;;;;;;;;;;;;;;;4995882;28;4864;-63
2022/11/04 18:23:11;;;;;;;;;;;;;;;;;;4996629;28;4554;-63
2022/11/04 18:28:42;;;;;;;;;;;;;;;;;;4976281;28;4627;-63
2022/11/04 18:31:08;;;;;;;;;;;;;;;;;;4991371;28;5129;-63
2022/11/04 18:33:33;;;;;;;;;;;;;;;;;;4995359;28;5058;-64
2022/11/04 18:48:09;;;;;;;;;;;;;;;;;;4976071;28;5027;-61
2022/11/04 18:50:42;;;;;;;;;;;;;;;;;;4975681;28;4930;-63
2022/11/04 18:56:11;;;;;;;;;;;;;;;;;;4976586;28;4612;-62
2022/11/04 18:58:37;;;;;;;;;;;;;;;;;;4975558;28;5067;-61
2022/11/04 19:04:40;;;;;;;;;;;;;;;;;;4990063;28;4645;-61
2022/11/04 19:07:20;;;;;;;;;;;;;;;;;;4998044;28;4550;-62
2022/11/04 19:09:45;;;;;;;;;;;;;;;;;;4994932;28;5003;-63
2022/11/04 19:18:40;;;;;;;;;;;;;;;;;;4995017;28;5175;-65
2022/11/04 19:24:10;;;;;;;;;;;;;;;;;;4994830;28;5091;-71
2022/11/04 19:29:38;;;;;;;;;;;;;;;;;;4994977;28;4493;-69
2022/11/04 19:32:08;;;;;;;;;;;;;;;;;;4989226;28;1644;-69
2022/11/04 19:34:33;;;;;;;;;;;;;;;;;;4971356;28;5042;-69
2022/11/04 19:36:58;;;;;;;;;;;;;;;;;;4971766;28;5113;-69
2022/11/04 19:39:23;;;;;;;;;;;;;;;;;;4980874;28;5312;-67
2022/11/04 19:44:32;;;;;;;;;;;;;;;;;;4991960;28;4693;-68
2022/11/04 19:46:58;;;;;;;;;;;;;;;;;;4988707;28;2790;-68
2022/11/04 19:49:23;;;;;;;;;;;;;;;;;;4991769;28;5077;-69
2022/11/04 19:51:48;;;;;;;;;;;;;;;;;;4984316;28;5098;-69
2022/11/04 19:54:13;;;;;;;;;;;;;;;;;;4975979;28;5141;-67
2022/11/04 19:56:39;;;;;;;;;;;;;;;;;;4974864;28;5103;-66
2022/11/04 19:59:05;;;;;;;;;;;;;;;;;;4976957;28;2782;-67
2022/11/04 20:01:31;;;;;;;;;;;;;;;;;;4981692;28;5028;-67
2022/11/04 20:03:56;;;;;;;;;;;;;;;;;;4974725;28;4777;-67
2022/11/04 20:06:22;;;;;;;;;;;;;;;;;;4986740;28;4564;-67
2022/11/04 20:08:51;;;;;;;;;;;;;;;;;;5015375;28;5132;-67
2022/11/04 20:11:22;;;;;;;;;;;;;;;;;;4990220;28;2865;-65
2022/11/04 20:13:47;;;;;;;;;;;;;;;;;;5004644;28;5046;-71
2022/11/04 20:16:19;;;;;;;;;;;;;;;;;;4994383;28;5222;-70
2022/11/04 20:18:45;;;;;;;;;;;;;;;;;;5014315;28;5041;-70
2022/11/04 20:24:31;;;;;;;;;;;;;;;;;;4995851;28;5391;-70
2022/11/04 20:29:59;;;;;;;;;;;;;;;;;;5017798;28;5106;-68
2022/11/04 20:32:24;;;;;;;;;;;;;;;;;;5017973;28;5033;-67
2022/11/04 20:38:10;;;;;;;;;;;;;;;;;;5018680;28;4577;-68
2022/11/04 20:46:41;;;;;;;;;;;;;;;;;;4997921;28;5099;-68
2022/11/04 20:52:27;;;;;;;;;;;;;;;;;;4998202;28;4978;-68
2022/11/04 20:58:14;;;;;;;;;;;;;;;;;;4997702;28;5135;-68
2022/11/04 21:00:39;;;;;;;;;;;;;;;;;;4997103;28;4970;-69
2022/11/04 21:06:09;;;;;;;;;;;;;;;;;;4992571;28;5013;-70
2022/11/04 21:11:38;;;;;;;;;;;;;;;;;;4978034;28;5571;-68
2022/11/04 21:17:06;;;;;;;;;;;;;;;;;;4978606;28;4790;-70
2022/11/04 21:19:31;;;;;;;;;;;;;;;;;;4977825;28;5107;-70